createdAt,value
2019-02-11T00:00:28.428Z,1.50
2019-02-11T00:02:58.058Z,1.47
2019-02-11T00:05:25.720Z,1.80
2019-02-11T00:07:53.409Z,1.77
2019-02-11T00:10:27.571Z,2.87
2019-02-11T00:12:55.153Z,2.50
2019-02-11T00:15:22.949Z,3.37
2019-02-11T00:17:50.525Z,4.00
2019-02-11T00:20:18.319Z,3.60
2019-02-11T00:22:45.958Z,4.07
2019-02-11T00:25:13.592Z,3.93
2019-02-11T00:27:41.508Z,4.30
2019-02-11T00:30:09.086Z,4.60
2019-02-11T00:32:36.671Z,4.80
2019-02-11T00:35:04.178Z,4.90
2019-02-11T00:37:31.660Z,5.30
2019-02-11T00:39:59.248Z,5.37
2019-02-11T00:42:26.844Z,5.40
2019-02-11T00:44:54.409Z,6.00
2019-02-11T00:47:21.991Z,6.13
2019-02-11T00:49:49.456Z,5.93
2019-02-11T00:52:17.035Z,5.70
2019-02-11T00:54:44.471Z,5.57
2019-02-11T00:57:12.027Z,5.70
2019-02-11T00:59:39.587Z,5.27
2019-02-11T01:02:07.194Z,6.97
2019-02-11T01:04:34.636Z,5.40
2019-02-11T01:07:02.226Z,5.10
2019-02-11T01:09:29.833Z,4.50
2019-02-11T01:11:57.430Z,4.30
2019-02-11T01:14:26.219Z,5.00
2019-02-11T01:16:53.842Z,5.20
2019-02-11T01:19:21.334Z,5.60
2019-02-11T01:21:48.917Z,5.57
2019-02-11T01:24:16.457Z,4.73
2019-02-11T01:26:44.049Z,4.80
2019-02-11T01:29:11.653Z,4.13
2019-02-11T01:31:39.219Z,4.47
2019-02-11T01:34:06.729Z,3.80
2019-02-11T01:36:34.311Z,4.23
2019-02-11T01:39:01.921Z,3.73
2019-02-11T01:41:30.521Z,4.33
2019-02-11T01:44:11.093Z,3.90
2019-02-11T01:46:38.577Z,4.17
2019-02-11T01:49:08.269Z,3.90
2019-02-11T01:51:35.731Z,4.07
2019-02-11T01:54:03.270Z,3.67
2019-02-11T01:56:30.755Z,3.53
2019-02-11T01:58:58.222Z,3.10
2019-02-11T02:01:25.686Z,3.60
2019-02-11T02:03:53.115Z,3.73
2019-02-11T02:06:20.666Z,3.53
2019-02-11T02:08:48.218Z,3.33
2019-02-11T02:11:15.772Z,3.70
2019-02-11T02:13:44.926Z,3.27
2019-02-11T02:16:12.587Z,3.43
2019-02-11T02:18:41.284Z,3.93
2019-02-11T02:21:08.870Z,3.50
2019-02-11T02:23:36.320Z,2.90
2019-02-11T02:26:03.754Z,3.93
2019-02-11T02:28:31.106Z,3.23
2019-02-11T02:30:58.585Z,3.80
2019-02-11T02:33:26.174Z,3.60
2019-02-11T02:35:53.746Z,3.17
2019-02-11T02:38:40.756Z,3.93
2019-02-11T02:41:08.341Z,3.53
2019-02-11T02:43:35.867Z,3.17
2019-02-11T02:46:03.457Z,3.60
2019-02-11T02:48:30.998Z,3.43
2019-02-11T02:50:58.468Z,3.50
2019-02-11T02:53:25.918Z,3.57
2019-02-11T02:55:53.396Z,2.87
2019-02-11T02:58:21.265Z,2.93
2019-02-11T03:00:48.714Z,2.83
2019-02-11T03:03:17.259Z,3.17
2019-02-11T03:05:44.690Z,3.33
2019-02-11T03:08:12.200Z,3.70
2019-02-11T03:10:39.736Z,3.00
2019-02-11T03:13:07.170Z,3.27
2019-02-11T03:15:34.650Z,4.00
2019-02-11T03:18:02.084Z,3.47
2019-02-11T03:20:29.586Z,4.77
2019-02-11T03:22:57.116Z,3.57
2019-02-11T03:25:24.579Z,3.60
2019-02-11T03:27:52.120Z,4.43
2019-02-11T03:30:19.581Z,4.10
2019-02-11T03:32:47.031Z,3.77
2019-02-11T03:35:14.566Z,3.97
2019-02-11T03:37:42.037Z,4.10
2019-02-11T03:40:09.540Z,3.93
2019-02-11T03:42:36.974Z,3.03
2019-02-11T03:45:05.411Z,3.40
2019-02-11T03:47:32.993Z,3.30
2019-02-11T03:50:00.467Z,3.13
2019-02-11T03:52:28.027Z,3.73
2019-02-11T03:54:55.641Z,3.57
2019-02-11T03:57:23.187Z,3.00
2019-02-11T03:59:50.653Z,2.53
2019-02-11T04:02:18.107Z,2.50
2019-02-11T04:04:45.643Z,2.53
2019-02-11T04:07:13.203Z,2.43
2019-02-11T04:09:40.696Z,2.27
2019-02-11T04:12:08.233Z,2.77
2019-02-11T04:14:35.769Z,2.30
2019-02-11T04:17:06.382Z,2.60
2019-02-11T04:19:34.277Z,2.70
2019-02-11T04:22:06.289Z,3.00
2019-02-11T04:24:33.881Z,2.47
2019-02-11T04:27:01.405Z,2.40
2019-02-11T04:29:28.875Z,2.23
2019-02-11T04:31:56.419Z,2.10
2019-02-11T04:34:23.944Z,2.87
2019-02-11T04:36:51.440Z,2.40
2019-02-11T04:39:18.941Z,2.37
2019-02-11T04:41:46.469Z,2.73
2019-02-11T04:44:13.917Z,2.87
2019-02-11T04:46:41.430Z,2.60
2019-02-11T04:49:08.984Z,3.20
2019-02-11T04:51:36.427Z,2.30
2019-02-11T04:54:03.933Z,2.43
2019-02-11T04:56:31.469Z,2.63
2019-02-11T04:58:58.929Z,3.40
2019-02-11T05:01:26.458Z,1.90
2019-02-11T05:03:54.105Z,2.53
2019-02-11T05:06:21.695Z,2.70
2019-02-11T05:08:49.305Z,2.40
2019-02-11T05:11:16.895Z,2.33
2019-02-11T05:13:44.359Z,3.20
2019-02-11T05:16:11.931Z,2.03
2019-02-11T05:18:39.511Z,2.77
2019-02-11T05:21:08.106Z,2.60
2019-02-11T05:23:35.547Z,2.47
2019-02-11T05:26:02.974Z,2.40
2019-02-11T05:28:30.575Z,2.03
2019-02-11T05:30:58.033Z,2.10
2019-02-11T05:33:25.524Z,2.30
2019-02-11T05:35:53.014Z,1.83
2019-02-11T05:38:20.594Z,2.63
2019-02-11T05:40:48.147Z,2.90
2019-02-11T05:43:15.946Z,2.20
2019-02-11T05:45:43.501Z,2.37
2019-02-11T05:48:11.136Z,2.30
2019-02-11T05:50:38.637Z,2.23
2019-02-11T05:53:06.212Z,2.17
2019-02-11T05:55:33.771Z,2.23
2019-02-11T05:58:01.346Z,2.50
2019-02-11T06:00:34.619Z,1.60
2019-02-11T06:03:03.285Z,2.17
2019-02-11T06:05:30.868Z,1.50
2019-02-11T06:07:58.288Z,2.47
2019-02-11T06:10:25.798Z,2.20
2019-02-11T06:12:53.333Z,2.10
2019-02-11T06:15:20.794Z,2.10
2019-02-11T06:17:48.336Z,2.10
2019-02-11T06:20:15.812Z,1.80
2019-02-11T06:22:43.258Z,1.60
2019-02-11T06:25:10.731Z,2.23
2019-02-11T06:27:38.167Z,1.90
2019-02-11T06:30:07.691Z,1.80
2019-02-11T06:32:35.162Z,1.67
2019-02-11T06:35:02.766Z,2.10
2019-02-11T06:37:30.303Z,2.33
2019-02-11T06:39:57.830Z,2.10
2019-02-11T06:42:25.392Z,1.93
2019-02-11T06:44:52.938Z,1.77
2019-02-11T06:47:20.417Z,1.77
2019-02-11T06:49:48.020Z,2.83
2019-02-11T06:52:15.552Z,2.30
2019-02-11T06:54:43.137Z,4.57
2019-02-11T06:57:10.731Z,3.40
2019-02-11T06:59:38.295Z,3.40
2019-02-11T07:02:05.830Z,2.53
2019-02-11T07:04:33.420Z,3.03
2019-02-11T07:07:00.928Z,3.03
2019-02-11T07:09:28.502Z,2.47
2019-02-11T07:11:56.040Z,2.50
2019-02-11T07:14:23.445Z,2.10
2019-02-11T07:16:51.040Z,3.23
2019-02-11T07:19:18.558Z,2.83
2019-02-11T07:21:46.094Z,2.47
2019-02-11T07:24:13.639Z,2.20
2019-02-11T07:26:41.093Z,3.37
2019-02-11T07:29:08.670Z,3.23
2019-02-11T07:31:36.246Z,2.40
2019-02-11T07:34:03.720Z,2.17
2019-02-11T07:36:31.283Z,1.50
2019-02-11T07:38:58.835Z,3.10
2019-02-11T07:41:45.890Z,2.10
2019-02-11T07:44:20.292Z,2.30
2019-02-11T07:46:52.068Z,3.03
2019-02-11T07:49:19.619Z,2.30
2019-02-11T07:51:47.190Z,1.90
2019-02-11T07:54:14.741Z,3.10
2019-02-11T07:56:42.349Z,1.97
2019-02-11T07:59:09.885Z,2.23
2019-02-11T08:01:37.443Z,2.50
2019-02-11T08:04:04.914Z,3.00
2019-02-11T08:06:32.540Z,2.73
2019-02-11T08:09:00.068Z,2.53
2019-02-11T08:11:27.613Z,2.50
2019-02-11T08:13:55.078Z,2.83
2019-02-11T08:16:22.635Z,2.53
2019-02-11T08:18:50.175Z,2.33
2019-02-11T08:21:17.737Z,2.07
2019-02-11T08:23:45.261Z,3.00
2019-02-11T08:26:12.774Z,2.83
2019-02-11T08:28:40.318Z,2.30
2019-02-11T08:31:07.873Z,2.20
2019-02-11T08:33:35.458Z,2.23
2019-02-11T08:36:03.019Z,2.60
2019-02-11T08:38:30.515Z,2.30
2019-02-11T08:40:57.971Z,1.77
2019-02-11T08:43:25.535Z,1.87
2019-02-11T08:45:52.931Z,2.27
2019-02-11T08:48:20.454Z,2.07
2019-02-11T08:50:47.953Z,3.27
2019-02-11T08:53:15.557Z,2.57
2019-02-11T08:55:43.079Z,2.30
2019-02-11T08:58:10.539Z,2.47
2019-02-11T09:00:38.091Z,2.40
2019-02-11T09:03:05.627Z,2.90
2019-02-11T09:05:33.110Z,2.87
2019-02-11T09:08:00.946Z,2.57
2019-02-11T09:10:28.652Z,3.23
2019-02-11T09:12:56.107Z,2.50
2019-02-11T09:15:23.534Z,3.03
2019-02-11T09:17:51.103Z,2.43
2019-02-11T09:20:18.583Z,2.90
2019-02-11T09:22:46.180Z,3.50
2019-02-11T09:25:13.732Z,3.37
2019-02-11T09:27:41.296Z,3.30
2019-02-11T09:30:11.404Z,3.60
2019-02-11T09:32:38.957Z,3.70
2019-02-11T09:35:06.426Z,3.87
2019-02-11T09:37:33.893Z,4.07
2019-02-11T09:40:01.434Z,4.80
2019-02-11T09:42:28.966Z,4.43
2019-02-11T09:44:56.426Z,3.63
2019-02-11T09:47:24.002Z,3.80
2019-02-11T09:50:10.552Z,4.07
2019-02-11T09:52:38.084Z,3.80
2019-02-11T09:55:29.386Z,3.50
2019-02-11T09:57:56.866Z,4.17
2019-02-11T10:00:24.630Z,3.83
2019-02-11T10:02:52.164Z,3.87
2019-02-11T10:05:19.694Z,4.03
2019-02-11T10:07:47.184Z,4.10
2019-02-11T10:10:14.660Z,3.70
2019-02-11T10:12:42.221Z,3.17
2019-02-11T10:15:10.320Z,3.63
2019-02-11T10:17:37.866Z,3.33
2019-02-11T10:20:06.506Z,3.67
2019-02-11T10:22:33.976Z,3.47
2019-02-11T10:25:01.472Z,3.27
2019-02-11T10:27:28.965Z,3.30
2019-02-11T10:29:56.447Z,3.30
2019-02-11T10:32:24.043Z,4.00
2019-02-11T10:34:51.644Z,3.10
2019-02-11T10:37:19.177Z,3.37
2019-02-11T10:39:47.773Z,3.37
2019-02-11T10:42:15.266Z,3.47
2019-02-11T10:44:42.812Z,3.77
2019-02-11T10:47:10.368Z,3.40
2019-02-11T10:49:37.844Z,4.30
2019-02-11T10:52:05.331Z,3.83
2019-02-11T10:54:33.833Z,4.53
2019-02-11T10:57:01.385Z,4.40
2019-02-11T10:59:29.355Z,4.53
2019-02-11T11:01:56.888Z,4.13
2019-02-11T11:04:24.446Z,5.00
2019-02-11T11:06:53.072Z,4.80
2019-02-11T11:09:20.639Z,4.30
2019-02-11T11:11:48.247Z,4.00
2019-02-11T11:14:15.859Z,4.33
2019-02-11T11:16:43.469Z,4.23
2019-02-11T11:19:12.019Z,6.10
2019-02-11T11:21:39.595Z,5.23
2019-02-11T11:24:07.268Z,4.97
2019-02-11T11:26:34.857Z,4.13
2019-02-11T11:29:02.577Z,5.47
2019-02-11T11:31:30.071Z,4.93
2019-02-11T11:33:57.574Z,4.63
2019-02-11T11:36:25.120Z,4.40
2019-02-11T11:38:52.571Z,4.53
2019-02-11T11:41:20.135Z,4.67
2019-02-11T11:43:47.619Z,4.10
2019-02-11T11:46:15.315Z,4.63
2019-02-11T11:48:42.733Z,3.40
2019-02-11T11:51:10.219Z,4.43
2019-02-11T11:53:37.756Z,3.80
2019-02-11T11:56:05.191Z,4.07
2019-02-11T11:58:32.787Z,4.33
2019-02-11T12:01:00.590Z,4.67
2019-02-11T12:03:28.234Z,2.80
2019-02-11T12:05:55.760Z,3.27
2019-02-11T12:08:23.253Z,3.53
2019-02-11T12:10:50.759Z,3.50
2019-02-11T12:13:22.973Z,3.23
2019-02-11T12:15:47.744Z,2.73
2019-02-11T12:18:15.318Z,2.30
2019-02-11T12:20:42.876Z,3.50
2019-02-11T12:23:10.476Z,3.37
2019-02-11T12:25:38.037Z,3.27
2019-02-11T12:28:05.585Z,3.13
2019-02-11T12:30:33.130Z,4.30
2019-02-11T12:33:00.688Z,3.03
2019-02-11T12:35:28.237Z,3.80
2019-02-11T12:37:55.878Z,3.30
2019-02-11T12:40:23.501Z,2.93
2019-02-11T12:42:53.026Z,2.63
2019-02-11T12:45:21.160Z,2.27
2019-02-11T12:47:48.728Z,2.60
2019-02-11T12:50:16.582Z,2.87
2019-02-11T12:52:44.158Z,2.37
2019-02-11T12:55:12.259Z,2.60
2019-02-11T12:57:39.838Z,2.50
2019-02-11T13:00:10.321Z,2.70
2019-02-11T13:02:37.891Z,2.70
2019-02-11T13:05:05.478Z,2.87
2019-02-11T13:07:33.046Z,3.00
2019-02-11T13:10:00.621Z,3.40
2019-02-11T13:12:28.235Z,2.63
2019-02-11T13:14:56.887Z,2.73
2019-02-11T13:17:33.956Z,3.13
2019-02-11T13:20:07.636Z,3.20
2019-02-11T13:22:23.193Z,2.93
2019-02-11T13:24:50.713Z,2.57
2019-02-11T13:27:18.266Z,2.90
2019-02-11T13:29:45.866Z,3.00
2019-02-11T13:32:13.441Z,3.03
2019-02-11T13:34:40.930Z,2.43
2019-02-11T13:37:08.687Z,3.23
2019-02-11T13:39:36.310Z,3.03
2019-02-11T13:42:03.844Z,2.27
2019-02-11T13:44:31.713Z,2.10
2019-02-11T13:46:59.306Z,2.67
2019-02-11T13:49:26.855Z,2.43
2019-02-11T13:51:54.429Z,2.40
2019-02-11T13:54:21.959Z,2.57
2019-02-11T13:56:49.535Z,2.43
2019-02-11T13:59:17.119Z,2.73
2019-02-11T14:01:44.716Z,3.50
2019-02-11T14:04:12.319Z,3.27
2019-02-11T14:06:39.957Z,2.97
2019-02-11T14:09:11.693Z,2.87
2019-02-11T14:11:39.511Z,2.57
2019-02-11T14:14:07.069Z,2.80
2019-02-11T14:16:34.677Z,2.63
2019-02-11T14:19:02.273Z,2.63
2019-02-11T14:21:30.853Z,2.60
2019-02-11T14:23:58.475Z,2.87
2019-02-11T14:26:26.183Z,3.13
2019-02-11T14:28:53.775Z,2.80
2019-02-11T14:31:21.637Z,2.80
2019-02-11T14:33:49.476Z,2.90
2019-02-11T14:36:17.285Z,3.17
2019-02-11T14:38:44.982Z,3.03
2019-02-11T14:41:12.710Z,2.80
2019-02-11T14:43:40.503Z,3.33
2019-02-11T14:46:08.250Z,2.73
2019-02-11T14:48:36.000Z,3.60
2019-02-11T14:51:03.730Z,3.50
2019-02-11T14:53:31.325Z,3.10
2019-02-11T14:55:59.021Z,3.37
2019-02-11T14:58:27.609Z,3.47
2019-02-11T15:00:55.227Z,3.43
2019-02-11T15:03:22.875Z,3.50
2019-02-11T15:05:51.587Z,3.27
2019-02-11T15:08:19.138Z,3.73
2019-02-11T15:10:46.670Z,2.87
2019-02-11T15:13:14.306Z,3.83
2019-02-11T15:15:41.785Z,2.77
2019-02-11T15:18:09.246Z,4.03
2019-02-11T15:20:36.721Z,4.53
2019-02-11T15:23:04.194Z,3.60
2019-02-11T15:25:31.760Z,3.77
2019-02-11T15:27:59.331Z,3.57
2019-02-11T15:30:26.872Z,4.20
2019-02-11T15:32:54.423Z,4.13
2019-02-11T15:35:21.993Z,3.20
2019-02-11T15:37:49.458Z,4.10
2019-02-11T15:40:19.087Z,4.17
2019-02-11T15:42:46.660Z,3.40
2019-02-11T15:45:14.233Z,4.47
2019-02-11T15:47:41.794Z,3.60
2019-02-11T15:50:10.521Z,3.37
2019-02-11T15:52:37.990Z,3.60
2019-02-11T15:55:07.302Z,3.10
2019-02-11T15:57:34.860Z,3.67
2019-02-11T16:00:02.510Z,3.10
2019-02-11T16:02:30.044Z,3.60
2019-02-11T16:05:02.436Z,3.63
2019-02-11T16:07:26.981Z,3.37
2019-02-11T16:09:55.900Z,3.23
2019-02-11T16:12:23.681Z,3.43
2019-02-11T16:14:51.291Z,3.93
2019-02-11T16:17:18.824Z,3.97
2019-02-11T16:19:46.384Z,3.13
2019-02-11T16:22:13.906Z,3.70
2019-02-11T16:24:41.450Z,4.67
2019-02-11T16:27:08.936Z,3.43
2019-02-11T16:29:36.402Z,3.67
2019-02-11T16:32:03.862Z,3.83
2019-02-11T16:34:31.345Z,3.83
2019-02-11T16:36:58.941Z,3.57
2019-02-11T16:39:26.479Z,4.37
2019-02-11T16:41:54.158Z,3.20
2019-02-11T16:44:21.704Z,3.17
2019-02-11T16:46:49.279Z,4.30
2019-02-11T16:49:16.859Z,3.90
2019-02-11T16:51:44.458Z,3.50
2019-02-11T16:54:12.021Z,3.73
2019-02-11T16:56:39.595Z,3.13
2019-02-11T16:59:07.119Z,3.27
2019-02-11T17:01:34.645Z,3.30
2019-02-11T17:04:02.127Z,3.20
2019-02-11T17:06:29.650Z,4.03
2019-02-11T17:08:57.240Z,4.20
2019-02-11T17:11:25.103Z,3.80
2019-02-11T17:13:52.635Z,2.67
2019-02-11T17:16:20.268Z,3.60
2019-02-11T17:18:47.832Z,3.83
2019-02-11T17:21:16.449Z,3.40
2019-02-11T17:23:44.062Z,3.70
2019-02-11T17:26:11.656Z,3.53
2019-02-11T17:28:39.240Z,3.47
2019-02-11T17:31:07.353Z,3.70
2019-02-11T17:33:34.913Z,3.77
2019-02-11T17:36:02.651Z,4.10
2019-02-11T17:38:30.108Z,3.73
2019-02-11T17:40:57.704Z,3.23
2019-02-11T17:43:25.285Z,3.47
2019-02-11T17:45:52.914Z,3.53
2019-02-11T17:48:21.985Z,3.23
2019-02-11T17:50:49.601Z,3.50
2019-02-11T17:53:17.363Z,3.07
2019-02-11T17:55:45.973Z,3.43
2019-02-11T17:58:13.683Z,4.23
2019-02-11T18:00:47.055Z,3.07
2019-02-11T18:03:14.641Z,3.57
2019-02-11T18:05:42.196Z,3.00
2019-02-11T18:08:09.639Z,3.00
2019-02-11T18:10:37.200Z,2.73
2019-02-11T18:13:04.733Z,2.93
2019-02-11T18:15:32.328Z,3.17
2019-02-11T18:17:59.841Z,3.37
2019-02-11T18:20:27.470Z,3.57
2019-02-11T18:22:55.032Z,2.77
2019-02-11T18:25:22.618Z,3.07
2019-02-11T18:27:50.063Z,3.50
2019-02-11T18:30:17.628Z,3.13
2019-02-11T18:32:45.193Z,3.00
2019-02-11T18:35:12.833Z,3.23
2019-02-11T18:37:40.302Z,2.77
2019-02-11T18:40:09.369Z,3.20
2019-02-11T18:42:36.918Z,2.63
2019-02-11T18:45:05.741Z,3.93
2019-02-11T18:47:33.201Z,3.23
2019-02-11T18:50:01.956Z,3.37
2019-02-11T18:52:29.540Z,3.03
2019-02-11T18:54:57.006Z,3.60
2019-02-11T18:57:25.698Z,2.90
2019-02-11T18:59:53.252Z,3.93
2019-02-11T19:02:20.734Z,2.90
2019-02-11T19:04:48.327Z,3.03
2019-02-11T19:07:15.749Z,2.93
2019-02-11T19:09:44.409Z,3.37
2019-02-11T19:12:12.000Z,2.77
2019-02-11T19:14:39.490Z,2.90
2019-02-11T19:17:06.987Z,3.13
2019-02-11T19:19:42.793Z,3.00
2019-02-11T19:22:03.950Z,3.13
2019-02-11T19:24:31.478Z,3.80
2019-02-11T19:26:59.069Z,2.90
2019-02-11T19:29:26.586Z,3.33
2019-02-11T19:31:54.114Z,3.37
2019-02-11T19:34:21.636Z,2.97
2019-02-11T19:36:49.189Z,2.53
2019-02-11T19:39:16.785Z,2.80
2019-02-11T19:41:44.390Z,2.77
2019-02-11T19:44:11.854Z,2.90
2019-02-11T19:46:39.422Z,2.80
2019-02-11T19:49:07.039Z,2.80
2019-02-11T19:51:34.646Z,2.87
2019-02-11T19:54:02.227Z,2.13
2019-02-11T19:56:29.788Z,2.67
2019-02-11T19:58:57.364Z,2.20
2019-02-11T20:01:24.901Z,2.73
2019-02-11T20:03:52.524Z,1.90
2019-02-11T20:06:20.109Z,2.43
2019-02-11T20:08:47.678Z,1.93
2019-02-11T20:11:15.221Z,2.70
2019-02-11T20:13:42.786Z,2.43
2019-02-11T20:16:10.271Z,2.50
2019-02-11T20:18:37.749Z,2.70
2019-02-11T20:21:05.355Z,2.20
2019-02-11T20:23:32.893Z,2.30
2019-02-11T20:26:01.537Z,2.17
2019-02-11T20:28:29.221Z,2.17
2019-02-11T20:30:56.949Z,2.27
2019-02-11T20:33:24.674Z,2.00
2019-02-11T20:35:52.223Z,2.20
2019-02-11T20:38:19.800Z,1.97
2019-02-11T20:40:47.406Z,2.23
2019-02-11T20:43:15.080Z,2.60
2019-02-11T20:45:42.637Z,2.20
2019-02-11T20:48:10.191Z,2.10
2019-02-11T20:50:37.659Z,1.97
2019-02-11T20:53:05.150Z,1.77
2019-02-11T20:55:32.726Z,2.00
2019-02-11T20:58:00.309Z,2.00
2019-02-11T21:00:27.989Z,2.50
2019-02-11T21:02:55.588Z,1.90
2019-02-11T21:05:23.185Z,1.90
2019-02-11T21:07:50.794Z,1.83
2019-02-11T21:10:18.315Z,2.67
2019-02-11T21:12:45.794Z,2.53
2019-02-11T21:15:13.970Z,1.83
2019-02-11T21:17:41.560Z,1.50
2019-02-11T21:20:17.583Z,2.03
2019-02-11T21:22:43.580Z,2.07
2019-02-11T21:25:11.184Z,2.47
2019-02-11T21:27:38.691Z,2.13
2019-02-11T21:30:08.754Z,2.43
2019-02-11T21:32:36.334Z,3.23
2019-02-11T21:35:04.236Z,2.10
2019-02-11T21:37:31.960Z,1.97
2019-02-11T21:39:59.499Z,3.27
2019-02-11T21:42:27.090Z,2.60
2019-02-11T21:44:54.690Z,2.40
2019-02-11T21:47:25.545Z,2.63
2019-02-11T21:49:53.072Z,2.40
2019-02-11T21:52:21.730Z,2.80
2019-02-11T21:54:49.245Z,2.50
2019-02-11T21:57:16.849Z,2.30
2019-02-11T21:59:44.423Z,2.40
2019-02-11T22:02:11.978Z,2.50
2019-02-11T22:04:39.573Z,2.40
2019-02-11T22:07:06.987Z,2.93
2019-02-11T22:09:34.443Z,2.83
2019-02-11T22:12:01.911Z,2.03
2019-02-11T22:14:29.605Z,3.00
2019-02-11T22:16:57.059Z,2.90
2019-02-11T22:19:24.916Z,2.70
2019-02-11T22:21:52.470Z,2.90
2019-02-11T22:24:19.989Z,2.40
2019-02-11T22:26:47.579Z,1.90
2019-02-11T22:29:15.096Z,2.23
2019-02-11T22:31:42.685Z,2.40
2019-02-11T22:34:11.369Z,2.47
2019-02-11T22:36:39.099Z,2.40
2019-02-11T22:39:07.536Z,2.50
2019-02-11T22:41:35.138Z,3.37
2019-02-11T22:44:02.716Z,3.27
2019-02-11T22:46:30.317Z,3.03
2019-02-11T22:48:57.916Z,2.67
2019-02-11T22:51:25.477Z,2.70
2019-02-11T22:53:53.038Z,3.37
2019-02-11T22:56:20.533Z,2.50
2019-02-11T22:58:48.071Z,2.50
2019-02-11T23:01:16.014Z,2.80
2019-02-11T23:03:43.714Z,2.90
2019-02-11T23:06:11.307Z,2.60
2019-02-11T23:08:38.902Z,2.10
2019-02-11T23:11:06.399Z,2.10
2019-02-11T23:13:33.918Z,2.30
2019-02-11T23:16:01.450Z,1.90
2019-02-11T23:18:28.990Z,2.50
2019-02-11T23:20:56.558Z,2.00
2019-02-11T23:23:24.096Z,2.20
2019-02-11T23:25:51.688Z,2.13
2019-02-11T23:28:19.279Z,1.97
2019-02-11T23:30:46.782Z,2.30
2019-02-11T23:33:14.388Z,2.50
2019-02-11T23:35:41.876Z,2.27
2019-02-11T23:38:09.406Z,2.23
2019-02-11T23:40:36.798Z,1.80
2019-02-11T23:43:04.311Z,1.67
2019-02-11T23:45:32.084Z,2.07
2019-02-11T23:47:59.988Z,1.83
2019-02-11T23:50:27.454Z,1.97
2019-02-11T23:52:54.946Z,1.60
2019-02-11T23:55:22.406Z,1.70
2019-02-11T23:57:49.957Z,2.73
